createdAt,value
2022-09-12T00:02:10.475Z,77.45
2022-09-12T00:08:46.025Z,77.76
2022-09-12T00:11:14.751Z,77.89
2022-09-12T00:13:43.521Z,77.73
2022-09-12T00:16:21.084Z,77.68
2022-09-12T00:18:49.359Z,77.84
2022-09-12T00:21:18.979Z,77.81
2022-09-12T00:23:47.495Z,78.03
2022-09-12T00:26:16.202Z,78.18
2022-09-12T00:28:45.469Z,78.38
2022-09-12T00:31:17.442Z,78.35
2022-09-12T00:33:46.169Z,78.49
2022-09-12T00:36:17.340Z,78.52
2022-09-12T00:38:46.333Z,78.46
2022-09-12T00:41:23.291Z,78.40
2022-09-12T00:43:58.694Z,78.60
2022-09-12T00:46:39.401Z,78.80
2022-09-12T00:49:21.259Z,79.17
2022-09-12T00:56:02.595Z,79.14
2022-09-12T00:58:40.906Z,79.05
2022-09-12T01:01:09.154Z,78.82
2022-09-12T01:03:37.774Z,79.12
2022-09-12T01:06:16.386Z,79.11
2022-09-12T01:08:47.791Z,79.13
2022-09-12T01:11:16.684Z,78.97
2022-09-12T01:13:45.611Z,79.24
2022-09-12T01:16:13.838Z,79.77
2022-09-12T01:18:42.359Z,79.92
2022-09-12T01:21:25.415Z,80.04
2022-09-12T01:24:17.555Z,79.86
2022-09-12T01:26:51.546Z,80.21
2022-09-12T01:29:57.655Z,80.23
2022-09-12T01:32:32.524Z,80.11
2022-09-12T01:35:23.071Z,79.97
2022-09-12T01:37:54.378Z,79.51
2022-09-12T01:40:52.391Z,79.63
2022-09-12T01:43:26.840Z,80.09
2022-09-12T01:46:45.855Z,80.17
2022-09-12T01:49:29.939Z,80.19
2022-09-12T01:52:21.387Z,80.36
2022-09-12T01:55:16.719Z,80.24
2022-09-12T01:58:23.972Z,79.73
2022-09-12T02:01:07.998Z,80.06
2022-09-12T02:04:31.107Z,80.29
2022-09-12T02:07:12.421Z,80.51
2022-09-12T02:09:49.301Z,80.37
2022-09-12T02:12:24.017Z,80.34
2022-09-12T02:15:04.367Z,80.25
2022-09-12T02:18:28.062Z,80.33
2022-09-12T02:20:57.539Z,80.33
2022-09-12T02:23:32.049Z,80.21
2022-09-12T02:26:06.711Z,80.17
2022-09-12T02:28:38.495Z,80.07
2022-09-12T02:31:37.614Z,80.26
2022-09-12T02:34:34.835Z,80.11
2022-09-12T02:37:07.190Z,79.81
2022-09-12T02:39:36.303Z,79.63
2022-09-12T02:42:05.290Z,79.86
2022-09-12T02:44:35.098Z,79.77
2022-09-12T02:47:15.738Z,79.99
2022-09-12T02:49:44.419Z,79.76
2022-09-12T02:52:12.690Z,80.04
2022-09-12T02:54:41.274Z,79.95
2022-09-12T02:57:23.194Z,79.90
2022-09-12T02:59:55.362Z,79.77
2022-09-12T03:02:42.734Z,79.84
2022-09-12T03:05:38.186Z,79.91
2022-09-12T03:08:35.702Z,79.92
2022-09-12T03:11:30.042Z,80.04
2022-09-12T03:13:58.182Z,79.87
2022-09-12T03:16:32.262Z,80.15
2022-09-12T03:19:14.647Z,80.18
2022-09-12T03:21:58.822Z,80.32
2022-09-12T03:24:33.421Z,80.44
2022-09-12T03:27:32.894Z,80.33
2022-09-12T03:30:01.890Z,80.34
2022-09-12T03:32:49.750Z,80.29
2022-09-12T03:35:22.956Z,80.38
2022-09-12T03:37:52.323Z,80.65
2022-09-12T03:40:20.905Z,80.70
2022-09-12T03:42:49.577Z,80.92
2022-09-12T03:45:17.993Z,80.73
2022-09-12T03:47:46.266Z,80.86
2022-09-12T03:50:14.630Z,80.83
2022-09-12T03:52:42.874Z,81.19
2022-09-12T03:55:11.157Z,81.45
2022-09-12T03:57:39.554Z,81.70
2022-09-12T04:00:12.336Z,81.59
2022-09-12T04:02:41.729Z,81.22
2022-09-12T04:05:09.850Z,81.22
2022-09-12T04:07:38.266Z,81.52
2022-09-12T04:10:07.299Z,81.28
2022-09-12T04:12:35.982Z,81.44
2022-09-12T04:15:04.438Z,81.71
2022-09-12T04:17:32.705Z,81.63
2022-09-12T04:20:01.550Z,81.77
2022-09-12T04:22:32.041Z,81.74
2022-09-12T04:25:03.874Z,81.67
2022-09-12T04:27:32.216Z,81.70
2022-09-12T04:30:01.345Z,81.97
2022-09-12T04:32:31.421Z,81.89
2022-09-12T04:34:59.733Z,81.76
2022-09-12T04:37:27.955Z,81.58
2022-09-12T04:39:59.320Z,81.47
2022-09-12T04:42:56.157Z,81.45
2022-09-12T04:45:24.371Z,81.60
2022-09-12T04:47:52.596Z,81.74
2022-09-12T04:50:20.883Z,81.45
2022-09-12T04:52:55.763Z,81.49
2022-09-12T04:55:25.691Z,81.29
2022-09-12T04:57:53.891Z,81.53
2022-09-12T05:00:23.123Z,81.39
2022-09-12T05:03:19.563Z,81.61
2022-09-12T05:05:47.716Z,81.58
2022-09-12T05:08:15.907Z,81.48
2022-09-12T05:10:44.164Z,81.65
2022-09-12T05:13:12.415Z,81.84
2022-09-12T05:15:40.767Z,81.41
2022-09-12T05:18:59.954Z,81.73
2022-09-12T05:21:31.491Z,81.69
2022-09-12T05:24:02.437Z,81.67
2022-09-12T05:26:30.851Z,81.78
2022-09-12T05:28:59.031Z,81.80
2022-09-12T05:31:28.843Z,81.89
2022-09-12T05:33:57.679Z,81.73
2022-09-12T05:37:41.035Z,81.81
2022-09-12T05:44:19.050Z,82.19
2022-09-12T05:46:50.560Z,82.34
2022-09-12T05:49:18.969Z,82.37
2022-09-12T05:51:47.206Z,82.32
2022-09-12T05:54:18.954Z,82.37
2022-09-12T05:56:48.167Z,82.53
2022-09-12T05:59:19.270Z,82.79
2022-09-12T06:01:48.918Z,82.89
2022-09-12T06:04:17.737Z,82.98
2022-09-12T06:06:46.985Z,83.08
2022-09-12T06:09:17.075Z,83.04
2022-09-12T06:11:46.470Z,82.93
2022-09-12T06:14:17.903Z,82.96
2022-09-12T06:16:47.505Z,83.02
2022-09-12T06:19:19.090Z,83.01
2022-09-12T06:21:49.697Z,83.41
2022-09-12T06:24:19.422Z,83.81
2022-09-12T06:26:49.159Z,84.20
2022-09-12T06:29:17.425Z,83.92
2022-09-12T06:31:45.941Z,83.62
2022-09-12T06:34:15.688Z,82.98
2022-09-12T06:36:47.380Z,82.51
2022-09-12T06:39:20.781Z,81.96
2022-09-12T06:41:52.553Z,81.47
2022-09-12T06:44:30.662Z,80.87
2022-09-12T06:46:58.917Z,80.26
2022-09-12T06:49:27.094Z,79.89
2022-09-12T06:51:55.453Z,79.21
2022-09-12T06:54:23.752Z,78.69
2022-09-12T06:56:52.240Z,77.94
2022-09-12T06:59:20.417Z,77.20
2022-09-12T07:01:48.682Z,76.44
2022-09-12T07:04:16.969Z,75.48
2022-09-12T07:06:45.157Z,75.07
2022-09-12T07:09:17.138Z,74.81
2022-09-12T07:11:46.877Z,73.85
2022-09-12T07:14:15.888Z,73.57
2022-09-12T07:16:44.214Z,72.98
2022-09-12T07:19:12.511Z,71.87
2022-09-12T07:21:41.761Z,71.57
2022-09-12T07:24:11.051Z,71.89
2022-09-12T07:26:42.447Z,71.73
2022-09-12T07:29:35.864Z,71.42
2022-09-12T07:32:05.825Z,71.07
2022-09-12T07:34:37.810Z,70.72
2022-09-12T07:37:06.620Z,70.62
2022-09-12T07:39:34.827Z,69.11
2022-09-12T07:42:03.060Z,69.01
2022-09-12T07:44:32.829Z,68.61
2022-09-12T07:47:01.774Z,67.48
2022-09-12T07:49:30.659Z,67.55
2022-09-12T07:51:58.827Z,66.99
2022-09-12T07:54:27.091Z,66.61
2022-09-12T07:56:55.754Z,66.03
2022-09-12T07:59:48.487Z,65.65
2022-09-12T08:02:17.699Z,65.31
2022-09-12T08:04:48.569Z,64.77
2022-09-12T08:07:18.512Z,65.20
2022-09-12T08:09:47.103Z,65.11
2022-09-12T08:12:16.790Z,65.16
2022-09-12T08:14:45.089Z,65.12
2022-09-12T08:17:14.454Z,65.21
2022-09-12T08:19:43.803Z,65.27
2022-09-12T08:22:12.306Z,65.59
2022-09-12T08:24:40.683Z,65.69
2022-09-12T08:27:09.490Z,66.05
2022-09-12T08:29:37.898Z,65.96
2022-09-12T08:32:06.010Z,66.11
2022-09-12T08:34:34.350Z,65.48
2022-09-12T08:37:03.646Z,65.77
2022-09-12T08:39:32.917Z,65.90
2022-09-12T08:42:03.576Z,65.43
2022-09-12T08:44:53.777Z,65.27
2022-09-12T08:47:36.605Z,65.66
2022-09-12T08:50:10.124Z,65.37
2022-09-12T08:52:53.513Z,65.59
2022-09-12T08:55:27.924Z,65.20
2022-09-12T08:57:56.268Z,65.52
2022-09-12T09:00:38.022Z,65.67
2022-09-12T09:03:34.709Z,65.53
2022-09-12T09:06:44.921Z,65.55
2022-09-12T09:09:43.098Z,65.48
2022-09-12T09:12:39.410Z,65.62
2022-09-12T09:15:33.882Z,65.55
2022-09-12T09:18:08.964Z,65.30
2022-09-12T09:20:56.999Z,65.07
2022-09-12T09:23:41.665Z,65.34
2022-09-12T09:26:26.745Z,63.10
2022-09-12T09:29:03.013Z,60.62
2022-09-12T09:31:37.529Z,60.11
2022-09-12T09:34:15.949Z,59.03
2022-09-12T09:36:44.193Z,58.21
2022-09-12T09:39:48.348Z,57.29
2022-09-12T09:42:20.146Z,52.33
2022-09-12T09:44:49.207Z,53.39
2022-09-12T09:47:19.190Z,53.78
2022-09-12T09:49:47.801Z,53.99
2022-09-12T09:52:19.341Z,52.64
2022-09-12T09:54:58.586Z,51.13
2022-09-12T09:57:35.876Z,49.13
2022-09-12T10:00:22.604Z,49.31
2022-09-12T10:03:13.147Z,48.27
2022-09-12T10:05:50.640Z,48.76
2022-09-12T10:08:21.616Z,49.56
2022-09-12T10:11:02.132Z,49.23
2022-09-12T10:13:53.762Z,47.86
2022-09-12T10:16:30.525Z,47.73
2022-09-12T10:19:00.888Z,45.47
2022-09-12T10:21:50.824Z,45.06
2022-09-12T10:24:27.057Z,45.41
2022-09-12T10:27:05.870Z,44.81
2022-09-12T10:29:39.780Z,44.46
2022-09-12T10:32:09.485Z,43.53
2022-09-12T10:34:43.591Z,42.12
2022-09-12T10:37:24.596Z,42.98
2022-09-12T10:39:59.200Z,41.88
2022-09-12T10:42:56.625Z,42.80
2022-09-12T10:45:36.049Z,43.54
2022-09-12T10:48:27.600Z,45.33
2022-09-12T10:50:59.764Z,46.74
2022-09-12T10:53:34.646Z,46.14
2022-09-12T10:56:05.539Z,46.25
2022-09-12T10:58:39.490Z,46.75
2022-09-12T11:01:32.472Z,47.86
2022-09-12T11:04:19.377Z,48.26
2022-09-12T11:06:56.593Z,48.21
2022-09-12T11:09:37.013Z,47.32
2022-09-12T11:12:08.014Z,47.06
2022-09-12T11:15:03.758Z,45.86
2022-09-12T11:17:47.605Z,45.51
2022-09-12T11:20:34.438Z,44.87
2022-09-12T11:23:08.269Z,44.66
2022-09-12T11:25:39.197Z,45.23
2022-09-12T11:28:19.392Z,45.25
2022-09-12T11:31:15.148Z,45.19
2022-09-12T11:33:46.258Z,46.00
2022-09-12T11:36:17.858Z,44.62
2022-09-12T11:38:53.004Z,43.75
2022-09-12T11:41:31.598Z,43.28
2022-09-12T11:44:21.864Z,43.31
2022-09-12T11:46:52.084Z,42.83
2022-09-12T11:49:40.322Z,42.15
2022-09-12T11:52:16.851Z,41.40
2022-09-12T11:54:54.126Z,39.94
2022-09-12T11:57:25.231Z,40.50
2022-09-12T11:59:58.589Z,39.51
2022-09-12T12:02:29.615Z,39.10
2022-09-12T12:05:23.027Z,39.98
2022-09-12T12:07:56.391Z,38.43
2022-09-12T12:10:51.527Z,38.19
2022-09-12T12:13:26.608Z,37.44
2022-09-12T12:15:59.918Z,38.74
2022-09-12T12:18:29.750Z,39.68
2022-09-12T12:21:29.796Z,39.12
2022-09-12T12:24:10.228Z,38.66
2022-09-12T12:26:41.143Z,39.81
2022-09-12T12:29:13.522Z,41.70
2022-09-12T12:32:10.514Z,42.75
2022-09-12T12:34:46.548Z,44.49
2022-09-12T12:37:19.042Z,44.58
2022-09-12T12:39:48.452Z,43.45
2022-09-12T12:42:35.149Z,42.74
2022-09-12T12:45:23.783Z,42.70
2022-09-12T12:48:00.267Z,42.66
2022-09-12T12:50:31.994Z,41.97
2022-09-12T12:53:04.466Z,43.61
2022-09-12T12:55:50.154Z,43.97
2022-09-12T12:58:40.776Z,45.13
2022-09-12T13:01:20.873Z,44.17
2022-09-12T13:03:59.799Z,42.66
2022-09-12T13:06:38.440Z,41.75
2022-09-12T13:09:19.278Z,42.18
2022-09-12T13:11:55.914Z,41.43
2022-09-12T13:14:33.364Z,41.28
2022-09-12T13:17:06.340Z,40.36
2022-09-12T13:19:38.306Z,40.22
2022-09-12T13:22:09.254Z,41.66
2022-09-12T13:24:54.484Z,41.39
2022-09-12T13:27:25.587Z,41.80
2022-09-12T13:30:16.594Z,42.17
2022-09-12T13:32:44.853Z,41.78
2022-09-12T13:35:22.387Z,41.15
2022-09-12T13:38:19.642Z,40.75
2022-09-12T13:41:20.410Z,41.99
2022-09-12T13:43:49.748Z,42.92
2022-09-12T13:46:27.323Z,43.25
2022-09-12T13:48:56.452Z,43.05
2022-09-12T13:51:27.880Z,41.81
2022-09-12T13:53:59.232Z,41.04
2022-09-12T13:56:27.512Z,40.12
2022-09-12T13:58:58.276Z,40.00
2022-09-12T14:01:47.055Z,39.68
2022-09-12T14:04:45.250Z,39.43
2022-09-12T14:07:21.165Z,39.11
2022-09-12T14:09:59.195Z,39.01
2022-09-12T14:12:35.564Z,38.83
2022-09-12T14:15:04.421Z,39.73
2022-09-12T14:17:34.899Z,39.46
2022-09-12T14:20:08.999Z,40.47
2022-09-12T14:22:45.592Z,41.73
2022-09-12T14:25:25.294Z,41.47
2022-09-12T14:27:55.754Z,40.35
2022-09-12T14:30:26.182Z,40.69
2022-09-12T14:33:12.485Z,40.46
2022-09-12T14:36:18.408Z,40.32
2022-09-12T14:39:00.021Z,39.71
2022-09-12T14:41:36.257Z,39.35
2022-09-12T14:44:08.977Z,39.73
2022-09-12T14:46:42.479Z,39.36
2022-09-12T14:49:10.516Z,39.68
2022-09-12T14:51:47.106Z,39.09
2022-09-12T14:54:30.420Z,38.38
2022-09-12T14:57:21.898Z,37.90
2022-09-12T15:00:26.588Z,37.45
2022-09-12T15:02:54.999Z,38.79
2022-09-12T15:05:26.664Z,40.58
2022-09-12T15:08:01.877Z,40.59
2022-09-12T15:10:31.524Z,40.65
2022-09-12T15:13:08.555Z,40.11
2022-09-12T15:15:38.741Z,40.77
2022-09-12T15:18:07.246Z,42.12
2022-09-12T15:20:41.447Z,43.39
2022-09-12T15:23:40.457Z,43.52
2022-09-12T15:26:12.590Z,43.44
2022-09-12T15:28:41.127Z,43.04
2022-09-12T15:31:30.756Z,42.82
2022-09-12T15:34:01.250Z,42.48
2022-09-12T15:36:30.057Z,43.28
2022-09-12T15:38:58.712Z,43.47
2022-09-12T15:41:32.674Z,43.55
2022-09-12T15:44:01.363Z,43.48
2022-09-12T15:46:29.665Z,43.95
2022-09-12T15:48:57.932Z,43.72
2022-09-12T15:51:26.213Z,43.64
2022-09-12T15:53:54.649Z,43.79
2022-09-12T15:56:23.493Z,44.22
2022-09-12T15:58:59.316Z,44.90
2022-09-12T16:01:29.252Z,45.43
2022-09-12T16:03:58.046Z,46.13
2022-09-12T16:06:28.036Z,46.87
2022-09-12T16:08:56.233Z,47.54
2022-09-12T16:11:26.178Z,48.24
2022-09-12T16:13:55.818Z,49.11
2022-09-12T16:16:24.244Z,49.68
2022-09-12T16:18:52.789Z,49.94
2022-09-12T16:21:20.993Z,50.18
2022-09-12T16:23:49.527Z,50.58
2022-09-12T16:26:17.953Z,51.05
2022-09-12T16:28:46.347Z,51.79
2022-09-12T16:31:14.813Z,52.33
2022-09-12T16:33:43.104Z,52.73
2022-09-12T16:36:14.206Z,53.31
2022-09-12T16:38:44.759Z,53.57
2022-09-12T16:41:14.318Z,53.91
2022-09-12T16:43:43.222Z,54.43
2022-09-12T16:46:14.075Z,54.97
2022-09-12T16:48:52.524Z,55.30
2022-09-12T16:51:24.261Z,55.77
2022-09-12T16:53:54.166Z,56.28
2022-09-12T16:56:22.850Z,56.53
2022-09-12T16:58:51.787Z,57.22
2022-09-12T17:01:25.450Z,57.78
2022-09-12T17:03:55.442Z,57.96
2022-09-12T17:06:25.343Z,58.72
2022-09-12T17:08:56.309Z,58.89
2022-09-12T17:11:27.527Z,59.31
2022-09-12T17:14:06.735Z,59.43
2022-09-12T17:16:40.351Z,60.38
2022-09-12T17:19:15.840Z,60.70
2022-09-12T17:21:47.265Z,60.76
2022-09-12T17:24:16.709Z,61.10
2022-09-12T17:26:45.921Z,61.36
2022-09-12T17:29:15.092Z,61.56
2022-09-12T17:31:44.753Z,61.82
2022-09-12T17:34:17.934Z,62.19
2022-09-12T17:36:48.405Z,62.60
2022-09-12T17:39:17.012Z,62.51
2022-09-12T17:41:46.252Z,62.46
2022-09-12T17:44:15.244Z,62.91
2022-09-12T17:46:44.948Z,62.65
2022-09-12T17:50:30.387Z,62.99
2022-09-12T17:52:57.581Z,63.51
2022-09-12T17:55:26.581Z,63.53
2022-09-12T17:58:48.725Z,63.45
2022-09-12T18:01:35.738Z,63.79
2022-09-12T18:04:04.024Z,64.15
2022-09-12T18:06:33.002Z,64.08
2022-09-12T18:09:02.605Z,64.14
2022-09-12T18:11:31.744Z,64.50
2022-09-12T18:14:00.696Z,64.60
2022-09-12T18:17:48.221Z,64.71
2022-09-12T18:20:16.904Z,65.01
2022-09-12T18:22:49.001Z,65.16
2022-09-12T18:25:17.198Z,65.60
2022-09-12T18:27:45.372Z,65.65
2022-09-12T18:30:22.793Z,65.82
2022-09-12T18:32:51.096Z,66.16
2022-09-12T18:35:19.328Z,66.49
2022-09-12T18:37:47.975Z,66.86
2022-09-12T18:40:16.256Z,67.19
2022-09-12T18:42:44.494Z,67.21
2022-09-12T18:45:12.922Z,67.46
2022-09-12T18:47:41.671Z,67.83
2022-09-12T18:50:09.994Z,67.95
2022-09-12T18:52:38.154Z,68.25
2022-09-12T18:55:06.470Z,68.35
2022-09-12T18:57:35.342Z,68.52
2022-09-12T19:00:09.341Z,68.73
2022-09-12T19:02:40.136Z,68.95
2022-09-12T19:05:08.596Z,69.14
2022-09-12T19:07:36.804Z,69.28
2022-09-12T19:10:05.316Z,69.36
2022-09-12T19:12:33.908Z,69.27
2022-09-12T19:15:02.172Z,69.70
2022-09-12T19:17:30.413Z,70.01
2022-09-12T19:19:58.620Z,70.33
2022-09-12T19:22:26.847Z,70.49
2022-09-12T19:24:55.047Z,70.63
2022-09-12T19:27:23.247Z,70.69
2022-09-12T19:29:51.534Z,70.85
2022-09-12T19:32:19.795Z,70.83
2022-09-12T19:34:48.063Z,71.12
2022-09-12T19:37:17.348Z,71.30
2022-09-12T19:39:46.326Z,71.16
2022-09-12T19:42:14.622Z,71.40
2022-09-12T19:44:42.929Z,71.36
2022-09-12T19:47:11.322Z,71.37
2022-09-12T19:49:39.472Z,71.38
2022-09-12T19:52:08.051Z,71.50
2022-09-12T19:54:37.256Z,71.55
2022-09-12T19:57:05.501Z,71.45
2022-09-12T19:59:33.704Z,71.72
2022-09-12T20:02:01.974Z,71.98
2022-09-12T20:04:32.477Z,72.23
2022-09-12T20:07:00.680Z,72.24
2022-09-12T20:09:29.016Z,72.48
2022-09-12T20:11:57.250Z,72.35
2022-09-12T20:14:25.385Z,72.42
2022-09-12T20:16:53.509Z,72.67
2022-09-12T20:19:21.722Z,72.89
2022-09-12T20:21:49.859Z,72.72
2022-09-12T20:24:18.078Z,72.94
2022-09-12T20:26:46.967Z,73.04
2022-09-12T20:29:15.170Z,73.15
2022-09-12T20:31:44.406Z,73.36
2022-09-12T20:34:18.678Z,73.54
2022-09-12T20:37:15.978Z,73.64
2022-09-12T20:39:46.828Z,73.72
2022-09-12T20:42:18.494Z,73.82
2022-09-12T20:44:46.741Z,73.94
2022-09-12T20:47:15.051Z,74.13
2022-09-12T20:49:43.653Z,74.30
2022-09-12T20:52:11.999Z,74.29
2022-09-12T20:54:40.301Z,74.32
2022-09-12T20:58:25.575Z,74.46
2022-09-12T21:00:53.805Z,74.86
2022-09-12T21:03:22.061Z,74.91
2022-09-12T21:05:50.281Z,74.98
2022-09-12T21:08:44.325Z,74.99
2022-09-12T21:11:13.398Z,75.11
2022-09-12T21:13:42.200Z,75.14
2022-09-12T21:16:15.889Z,75.17
2022-09-12T21:18:52.862Z,75.08
2022-09-12T21:21:22.382Z,75.27
2022-09-12T21:23:55.444Z,75.04
2022-09-12T21:26:23.643Z,74.97
2022-09-12T21:29:44.658Z,75.13
2022-09-12T21:32:14.319Z,75.32
2022-09-12T21:34:42.723Z,75.48
2022-09-12T21:37:10.876Z,75.39
2022-09-12T21:39:41.061Z,75.44
2022-09-12T21:42:59.926Z,75.63
2022-09-12T21:45:28.459Z,75.70
2022-09-12T21:47:59.172Z,75.72
2022-09-12T21:50:27.738Z,75.85
2022-09-12T21:52:55.880Z,75.88
2022-09-12T21:55:28.678Z,75.86
2022-09-12T21:58:50.835Z,75.68
2022-09-12T22:01:22.300Z,75.74
2022-09-12T22:03:52.420Z,76.05
2022-09-12T22:06:24.140Z,75.97
2022-09-12T22:08:56.435Z,75.96
2022-09-12T22:11:25.763Z,75.92
2022-09-12T22:13:54.040Z,76.30
2022-09-12T22:16:22.178Z,76.39
2022-09-12T22:18:50.943Z,76.57
2022-09-12T22:21:22.183Z,76.76
2022-09-12T22:24:10.419Z,76.80
2022-09-12T22:26:44.118Z,76.85
2022-09-12T22:29:16.155Z,76.94
2022-09-12T22:31:44.781Z,77.15
2022-09-12T22:34:13.712Z,77.21
2022-09-12T22:36:42.431Z,77.38
2022-09-12T22:39:11.612Z,77.34
2022-09-12T22:41:40.395Z,77.50
2022-09-12T22:44:10.732Z,77.69
2022-09-12T22:46:39.661Z,77.44
2022-09-12T22:49:08.045Z,77.45
2022-09-12T22:52:03.144Z,77.36
2022-09-12T22:54:31.416Z,77.18
2022-09-12T22:56:59.784Z,77.21
2022-09-12T22:59:27.951Z,77.34
2022-09-12T23:01:56.107Z,77.24
2022-09-12T23:04:24.257Z,77.39
2022-09-12T23:06:53.195Z,77.56
2022-09-12T23:09:21.405Z,77.70
2022-09-12T23:11:49.569Z,77.74
2022-09-12T23:14:18.269Z,77.91
2022-09-12T23:16:46.447Z,77.97
2022-09-12T23:19:14.720Z,77.94
2022-09-12T23:21:42.900Z,78.15
2022-09-12T23:24:11.182Z,78.35
2022-09-12T23:26:39.470Z,78.45
2022-09-12T23:29:07.714Z,78.65
2022-09-12T23:35:43.102Z,78.61
2022-09-12T23:38:14.504Z,78.84
2022-09-12T23:40:42.975Z,78.78
2022-09-12T23:44:04.056Z,78.78
2022-09-12T23:46:32.605Z,78.77
2022-09-12T23:49:04.208Z,78.89
2022-09-12T23:51:32.632Z,78.64
2022-09-12T23:54:05.299Z,78.78
2022-09-12T23:56:33.466Z,78.88
2022-09-12T23:59:01.731Z,78.91
